sensor_id;sensor_type;location;lat;lon;timestamp;temperature;humidity
3069;DHT22;1545;51.728;8.796;2024-03-25T00:01:12;5.40;98.80
3069;DHT22;1545;51.728;8.796;2024-03-25T00:03:38;5.40;98.80
3069;DHT22;1545;51.728;8.796;2024-03-25T00:06:04;5.40;98.80
3069;DHT22;1545;51.728;8.796;2024-03-25T00:08:29;5.30;98.80
3069;DHT22;1545;51.728;8.796;2024-03-25T00:10:55;5.30;98.80
3069;DHT22;1545;51.728;8.796;2024-03-25T00:13:21;5.30;98.80
3069;DHT22;1545;51.728;8.796;2024-03-25T00:15:46;5.30;98.80
3069;DHT22;1545;51.728;8.796;2024-03-25T00:18:12;5.30;98.80
3069;DHT22;1545;51.728;8.796;2024-03-25T00:20:37;5.40;98.80
3069;DHT22;1545;51.728;8.796;2024-03-25T00:23:03;5.30;98.80
3069;DHT22;1545;51.728;8.796;2024-03-25T00:25:29;5.30;98.80
3069;DHT22;1545;51.728;8.796;2024-03-25T00:27:54;5.30;98.80
3069;DHT22;1545;51.728;8.796;2024-03-25T00:30:20;5.30;98.80
3069;DHT22;1545;51.728;8.796;2024-03-25T00:32:45;5.30;98.80
3069;DHT22;1545;51.728;8.796;2024-03-25T00:35:11;5.30;98.80
3069;DHT22;1545;51.728;8.796;2024-03-25T00:37:37;5.30;98.80
3069;DHT22;1545;51.728;8.796;2024-03-25T00:40:03;5.30;98.80
3069;DHT22;1545;51.728;8.796;2024-03-25T00:42:30;5.30;98.80
3069;DHT22;1545;51.728;8.796;2024-03-25T00:44:55;5.30;98.80
3069;DHT22;1545;51.728;8.796;2024-03-25T00:47:20;5.30;98.80
3069;DHT22;1545;51.728;8.796;2024-03-25T00:49:47;5.30;98.80
3069;DHT22;1545;51.728;8.796;2024-03-25T00:52:12;5.30;98.80
3069;DHT22;1545;51.728;8.796;2024-03-25T00:54:38;5.30;98.80
3069;DHT22;1545;51.728;8.796;2024-03-25T00:57:03;5.30;98.80
3069;DHT22;1545;51.728;8.796;2024-03-25T00:59:29;5.30;98.80
3069;DHT22;1545;51.728;8.796;2024-03-25T01:01:54;5.30;98.80
3069;DHT22;1545;51.728;8.796;2024-03-25T01:04:20;5.20;98.80
3069;DHT22;1545;51.728;8.796;2024-03-25T01:06:45;5.30;98.80
3069;DHT22;1545;51.728;8.796;2024-03-25T01:09:11;5.20;98.80
3069;DHT22;1545;51.728;8.796;2024-03-25T01:11:36;5.20;98.80
3069;DHT22;1545;51.728;8.796;2024-03-25T01:14:02;5.20;98.80
3069;DHT22;1545;51.728;8.796;2024-03-25T01:16:27;5.20;98.80
3069;DHT22;1545;51.728;8.796;2024-03-25T01:18:53;5.30;98.80
3069;DHT22;1545;51.728;8.796;2024-03-25T01:21:18;5.30;98.80
3069;DHT22;1545;51.728;8.796;2024-03-25T01:23:44;5.30;98.80
3069;DHT22;1545;51.728;8.796;2024-03-25T01:26:10;5.30;98.80
3069;DHT22;1545;51.728;8.796;2024-03-25T01:28:35;5.30;98.80
3069;DHT22;1545;51.728;8.796;2024-03-25T01:31:01;5.30;98.80
3069;DHT22;1545;51.728;8.796;2024-03-25T01:33:26;5.30;98.80
3069;DHT22;1545;51.728;8.796;2024-03-25T01:35:52;5.30;98.80
3069;DHT22;1545;51.728;8.796;2024-03-25T01:38:20;5.30;98.80
3069;DHT22;1545;51.728;8.796;2024-03-25T01:40:45;5.30;98.80
3069;DHT22;1545;51.728;8.796;2024-03-25T01:43:10;5.30;98.80
3069;DHT22;1545;51.728;8.796;2024-03-25T01:45:36;5.30;98.80
3069;DHT22;1545;51.728;8.796;2024-03-25T01:48:07;5.30;98.80
3069;DHT22;1545;51.728;8.796;2024-03-25T01:50:34;5.40;98.80
3069;DHT22;1545;51.728;8.796;2024-03-25T01:53:01;5.40;98.80
3069;DHT22;1545;51.728;8.796;2024-03-25T01:55:28;5.30;98.80
3069;DHT22;1545;51.728;8.796;2024-03-25T01:57:55;5.30;98.80
3069;DHT22;1545;51.728;8.796;2024-03-25T02:00:22;5.40;98.80
3069;DHT22;1545;51.728;8.796;2024-03-25T02:02:48;5.40;98.80
3069;DHT22;1545;51.728;8.796;2024-03-25T02:05:15;5.40;98.80
3069;DHT22;1545;51.728;8.796;2024-03-25T02:07:41;5.30;98.80
3069;DHT22;1545;51.728;8.796;2024-03-25T02:10:08;5.30;98.80
3069;DHT22;1545;51.728;8.796;2024-03-25T02:12:40;5.30;98.80
3069;DHT22;1545;51.728;8.796;2024-03-25T02:15:07;5.30;98.80
3069;DHT22;1545;51.728;8.796;2024-03-25T02:17:33;5.30;98.80
3069;DHT22;1545;51.728;8.796;2024-03-25T02:19:59;5.30;98.80
3069;DHT22;1545;51.728;8.796;2024-03-25T02:22:25;5.30;98.80
3069;DHT22;1545;51.728;8.796;2024-03-25T02:24:52;5.20;98.80
3069;DHT22;1545;51.728;8.796;2024-03-25T02:27:18;5.20;98.80
3069;DHT22;1545;51.728;8.796;2024-03-25T02:29:44;5.20;98.80
3069;DHT22;1545;51.728;8.796;2024-03-25T02:32:10;5.30;98.80
3069;DHT22;1545;51.728;8.796;2024-03-25T02:34:37;5.30;98.80
3069;DHT22;1545;51.728;8.796;2024-03-25T02:37:04;5.30;98.80
3069;DHT22;1545;51.728;8.796;2024-03-25T02:39:29;5.30;98.80
3069;DHT22;1545;51.728;8.796;2024-03-25T02:41:55;5.30;98.80
3069;DHT22;1545;51.728;8.796;2024-03-25T02:44:22;5.20;98.80
3069;DHT22;1545;51.728;8.796;2024-03-25T02:46:49;5.20;98.80
3069;DHT22;1545;51.728;8.796;2024-03-25T02:49:14;5.20;98.80
3069;DHT22;1545;51.728;8.796;2024-03-25T02:51:40;5.20;98.80
3069;DHT22;1545;51.728;8.796;2024-03-25T02:54:05;5.10;98.80
3069;DHT22;1545;51.728;8.796;2024-03-25T02:56:31;5.10;98.80
3069;DHT22;1545;51.728;8.796;2024-03-25T02:58:56;5.10;98.80
3069;DHT22;1545;51.728;8.796;2024-03-25T03:01:22;5.10;98.80
3069;DHT22;1545;51.728;8.796;2024-03-25T03:03:47;5.10;98.80
3069;DHT22;1545;51.728;8.796;2024-03-25T03:06:13;5.10;98.80
3069;DHT22;1545;51.728;8.796;2024-03-25T03:08:38;5.20;98.80
3069;DHT22;1545;51.728;8.796;2024-03-25T03:11:04;5.20;98.80
3069;DHT22;1545;51.728;8.796;2024-03-25T03:13:29;5.20;98.80
3069;DHT22;1545;51.728;8.796;2024-03-25T03:15:55;5.20;98.80
3069;DHT22;1545;51.728;8.796;2024-03-25T03:18:20;5.20;98.80
3069;DHT22;1545;51.728;8.796;2024-03-25T03:20:46;5.20;98.80
3069;DHT22;1545;51.728;8.796;2024-03-25T03:23:12;5.20;98.80
3069;DHT22;1545;51.728;8.796;2024-03-25T03:25:38;5.20;98.80
3069;DHT22;1545;51.728;8.796;2024-03-25T03:28:04;5.20;98.80
3069;DHT22;1545;51.728;8.796;2024-03-25T03:30:29;5.20;98.80
3069;DHT22;1545;51.728;8.796;2024-03-25T03:32:55;5.20;98.80
3069;DHT22;1545;51.728;8.796;2024-03-25T03:35:20;5.20;98.80
3069;DHT22;1545;51.728;8.796;2024-03-25T03:37:46;5.20;98.80
3069;DHT22;1545;51.728;8.796;2024-03-25T03:40:11;5.20;98.80
3069;DHT22;1545;51.728;8.796;2024-03-25T03:42:37;5.20;98.80
3069;DHT22;1545;51.728;8.796;2024-03-25T03:45:03;5.20;98.80
3069;DHT22;1545;51.728;8.796;2024-03-25T03:47:28;5.30;98.80
3069;DHT22;1545;51.728;8.796;2024-03-25T03:49:54;5.30;98.80
3069;DHT22;1545;51.728;8.796;2024-03-25T03:52:19;5.30;98.80
3069;DHT22;1545;51.728;8.796;2024-03-25T03:54:44;5.30;98.80
3069;DHT22;1545;51.728;8.796;2024-03-25T03:57:10;5.30;98.80
3069;DHT22;1545;51.728;8.796;2024-03-25T03:59:35;5.20;98.80
3069;DHT22;1545;51.728;8.796;2024-03-25T04:02:01;5.20;98.80
3069;DHT22;1545;51.728;8.796;2024-03-25T04:04:26;5.20;98.80
3069;DHT22;1545;51.728;8.796;2024-03-25T04:06:52;5.20;98.80
3069;DHT22;1545;51.728;8.796;2024-03-25T04:09:17;5.10;98.80
3069;DHT22;1545;51.728;8.796;2024-03-25T04:11:43;5.10;98.80
3069;DHT22;1545;51.728;8.796;2024-03-25T04:14:08;5.10;98.80
3069;DHT22;1545;51.728;8.796;2024-03-25T04:16:34;5.10;98.80
3069;DHT22;1545;51.728;8.796;2024-03-25T04:18:59;5.10;98.80
3069;DHT22;1545;51.728;8.796;2024-03-25T04:21:25;5.10;98.80
3069;DHT22;1545;51.728;8.796;2024-03-25T04:23:50;5.10;98.80
3069;DHT22;1545;51.728;8.796;2024-03-25T04:26:16;5.10;98.80
3069;DHT22;1545;51.728;8.796;2024-03-25T04:28:41;5.10;98.80
3069;DHT22;1545;51.728;8.796;2024-03-25T04:31:07;5.10;98.80
3069;DHT22;1545;51.728;8.796;2024-03-25T04:33:33;5.10;98.80
3069;DHT22;1545;51.728;8.796;2024-03-25T04:35:58;5.00;98.80
3069;DHT22;1545;51.728;8.796;2024-03-25T04:38:24;5.10;98.80
3069;DHT22;1545;51.728;8.796;2024-03-25T04:40:50;5.00;98.80
3069;DHT22;1545;51.728;8.796;2024-03-25T04:43:15;5.00;98.80
3069;DHT22;1545;51.728;8.796;2024-03-25T04:45:41;5.00;98.80
3069;DHT22;1545;51.728;8.796;2024-03-25T04:48:07;5.10;98.80
3069;DHT22;1545;51.728;8.796;2024-03-25T04:50:35;5.10;98.80
3069;DHT22;1545;51.728;8.796;2024-03-25T04:53:01;5.00;98.80
3069;DHT22;1545;51.728;8.796;2024-03-25T04:55:27;5.00;98.80
3069;DHT22;1545;51.728;8.796;2024-03-25T04:57:52;5.00;98.80
3069;DHT22;1545;51.728;8.796;2024-03-25T05:00:18;5.00;98.80
3069;DHT22;1545;51.728;8.796;2024-03-25T05:02:43;5.00;98.80
3069;DHT22;1545;51.728;8.796;2024-03-25T05:05:09;5.00;98.80
3069;DHT22;1545;51.728;8.796;2024-03-25T05:07:35;4.90;98.80
3069;DHT22;1545;51.728;8.796;2024-03-25T05:10:01;5.00;98.80
3069;DHT22;1545;51.728;8.796;2024-03-25T05:12:26;4.90;98.80
3069;DHT22;1545;51.728;8.796;2024-03-25T05:14:58;4.90;98.80
3069;DHT22;1545;51.728;8.796;2024-03-25T05:17:23;4.90;98.80
3069;DHT22;1545;51.728;8.796;2024-03-25T05:19:49;4.90;98.80
3069;DHT22;1545;51.728;8.796;2024-03-25T05:22:16;4.90;98.80
3069;DHT22;1545;51.728;8.796;2024-03-25T05:24:41;5.00;98.80
3069;DHT22;1545;51.728;8.796;2024-03-25T05:27:07;5.00;98.80
3069;DHT22;1545;51.728;8.796;2024-03-25T05:29:32;5.00;98.80
3069;DHT22;1545;51.728;8.796;2024-03-25T05:31:59;5.00;98.80
3069;DHT22;1545;51.728;8.796;2024-03-25T05:34:26;5.00;98.80
3069;DHT22;1545;51.728;8.796;2024-03-25T05:36:52;5.00;98.80
3069;DHT22;1545;51.728;8.796;2024-03-25T05:39:17;5.00;98.80
3069;DHT22;1545;51.728;8.796;2024-03-25T05:41:43;5.10;98.80
3069;DHT22;1545;51.728;8.796;2024-03-25T05:44:08;5.10;98.80
3069;DHT22;1545;51.728;8.796;2024-03-25T05:46:34;5.10;98.80
3069;DHT22;1545;51.728;8.796;2024-03-25T05:49:03;5.10;98.80
3069;DHT22;1545;51.728;8.796;2024-03-25T05:51:29;5.20;98.80
3069;DHT22;1545;51.728;8.796;2024-03-25T05:53:55;5.20;98.80
3069;DHT22;1545;51.728;8.796;2024-03-25T05:56:20;5.20;98.80
3069;DHT22;1545;51.728;8.796;2024-03-25T05:58:46;5.20;98.80
3069;DHT22;1545;51.728;8.796;2024-03-25T06:01:12;5.20;98.80
3069;DHT22;1545;51.728;8.796;2024-03-25T06:03:37;5.30;98.80
3069;DHT22;1545;51.728;8.796;2024-03-25T06:06:03;5.30;98.80
3069;DHT22;1545;51.728;8.796;2024-03-25T06:08:28;5.30;98.80
3069;DHT22;1545;51.728;8.796;2024-03-25T06:10:54;5.40;98.80
3069;DHT22;1545;51.728;8.796;2024-03-25T06:13:20;5.30;98.80
3069;DHT22;1545;51.728;8.796;2024-03-25T06:15:46;5.40;98.80
3069;DHT22;1545;51.728;8.796;2024-03-25T06:18:12;5.30;98.80
3069;DHT22;1545;51.728;8.796;2024-03-25T06:20:38;5.40;98.80
3069;DHT22;1545;51.728;8.796;2024-03-25T06:23:04;5.40;98.80
3069;DHT22;1545;51.728;8.796;2024-03-25T06:25:30;5.40;98.80
3069;DHT22;1545;51.728;8.796;2024-03-25T06:27:56;5.40;98.80
3069;DHT22;1545;51.728;8.796;2024-03-25T06:30:22;5.50;98.80
3069;DHT22;1545;51.728;8.796;2024-03-25T06:33:06;5.50;98.80
3069;DHT22;1545;51.728;8.796;2024-03-25T06:35:50;5.60;98.80
3069;DHT22;1545;51.728;8.796;2024-03-25T06:38:17;5.70;98.80
3069;DHT22;1545;51.728;8.796;2024-03-25T06:40:42;5.80;98.80
3069;DHT22;1545;51.728;8.796;2024-03-25T06:43:08;5.90;98.80
3069;DHT22;1545;51.728;8.796;2024-03-25T06:45:33;6.00;98.80
3069;DHT22;1545;51.728;8.796;2024-03-25T06:47:59;6.10;98.80
3069;DHT22;1545;51.728;8.796;2024-03-25T06:50:25;6.20;98.80
3069;DHT22;1545;51.728;8.796;2024-03-25T06:52:50;6.20;98.80
3069;DHT22;1545;51.728;8.796;2024-03-25T06:55:16;6.20;98.80
3069;DHT22;1545;51.728;8.796;2024-03-25T06:57:41;6.20;98.80
3069;DHT22;1545;51.728;8.796;2024-03-25T07:00:07;6.20;98.80
3069;DHT22;1545;51.728;8.796;2024-03-25T07:02:41;6.30;98.80
3069;DHT22;1545;51.728;8.796;2024-03-25T07:05:07;6.40;98.80
3069;DHT22;1545;51.728;8.796;2024-03-25T07:07:32;6.40;98.80
3069;DHT22;1545;51.728;8.796;2024-03-25T07:09:59;6.50;98.80
3069;DHT22;1545;51.728;8.796;2024-03-25T07:12:25;6.60;98.80
3069;DHT22;1545;51.728;8.796;2024-03-25T07:14:50;6.60;98.80
3069;DHT22;1545;51.728;8.796;2024-03-25T07:17:16;6.70;98.80
3069;DHT22;1545;51.728;8.796;2024-03-25T07:19:41;6.90;98.70
3069;DHT22;1545;51.728;8.796;2024-03-25T07:22:08;7.00;98.50
3069;DHT22;1545;51.728;8.796;2024-03-25T07:24:33;7.20;98.10
3069;DHT22;1545;51.728;8.796;2024-03-25T07:26:59;7.30;96.50
3069;DHT22;1545;51.728;8.796;2024-03-25T07:29:24;7.50;95.70
3069;DHT22;1545;51.728;8.796;2024-03-25T07:31:50;7.70;95.40
3069;DHT22;1545;51.728;8.796;2024-03-25T07:34:15;7.70;92.40
3069;DHT22;1545;51.728;8.796;2024-03-25T07:36:41;7.60;91.40
3069;DHT22;1545;51.728;8.796;2024-03-25T07:39:07;7.50;92.20
3069;DHT22;1545;51.728;8.796;2024-03-25T07:41:36;7.50;93.10
3069;DHT22;1545;51.728;8.796;2024-03-25T07:44:01;7.40;93.30
3069;DHT22;1545;51.728;8.796;2024-03-25T07:46:27;7.50;93.30
3069;DHT22;1545;51.728;8.796;2024-03-25T07:48:52;7.70;93.10
3069;DHT22;1545;51.728;8.796;2024-03-25T07:51:18;8.10;92.30
3069;DHT22;1545;51.728;8.796;2024-03-25T07:53:43;8.50;90.70
3069;DHT22;1545;51.728;8.796;2024-03-25T07:56:09;8.80;88.80
3069;DHT22;1545;51.728;8.796;2024-03-25T07:58:34;9.00;87.80
3069;DHT22;1545;51.728;8.796;2024-03-25T08:01:00;9.40;87.70
3069;DHT22;1545;51.728;8.796;2024-03-25T08:03:25;9.70;85.50
3069;DHT22;1545;51.728;8.796;2024-03-25T08:05:51;9.80;83.80
3069;DHT22;1545;51.728;8.796;2024-03-25T08:08:16;9.80;84.00
3069;DHT22;1545;51.728;8.796;2024-03-25T08:10:42;9.80;83.40
3069;DHT22;1545;51.728;8.796;2024-03-25T08:13:07;9.60;83.00
3069;DHT22;1545;51.728;8.796;2024-03-25T08:15:33;9.40;83.10
3069;DHT22;1545;51.728;8.796;2024-03-25T08:17:58;9.20;83.90
3069;DHT22;1545;51.728;8.796;2024-03-25T08:20:24;8.90;84.90
3069;DHT22;1545;51.728;8.796;2024-03-25T08:22:49;8.70;85.20
3069;DHT22;1545;51.728;8.796;2024-03-25T08:25:15;8.70;85.40
3069;DHT22;1545;51.728;8.796;2024-03-25T08:27:40;8.80;85.30
3069;DHT22;1545;51.728;8.796;2024-03-25T08:30:06;9.00;84.90
3069;DHT22;1545;51.728;8.796;2024-03-25T08:32:32;9.40;84.90
3069;DHT22;1545;51.728;8.796;2024-03-25T08:34:58;9.80;84.30
3069;DHT22;1545;51.728;8.796;2024-03-25T08:37:23;10.40;82.30
3069;DHT22;1545;51.728;8.796;2024-03-25T08:39:49;10.90;81.40
3069;DHT22;1545;51.728;8.796;2024-03-25T08:42:14;11.60;79.50
3069;DHT22;1545;51.728;8.796;2024-03-25T08:44:40;12.20;78.10
3069;DHT22;1545;51.728;8.796;2024-03-25T08:47:05;12.50;77.50
3069;DHT22;1545;51.728;8.796;2024-03-25T08:49:31;12.90;77.40
3069;DHT22;1545;51.728;8.796;2024-03-25T08:51:57;12.60;77.50
3069;DHT22;1545;51.728;8.796;2024-03-25T08:54:22;11.90;78.50
3069;DHT22;1545;51.728;8.796;2024-03-25T08:56:48;11.90;79.80
3069;DHT22;1545;51.728;8.796;2024-03-25T08:59:13;12.30;79.60
3069;DHT22;1545;51.728;8.796;2024-03-25T09:01:39;12.30;78.60
3069;DHT22;1545;51.728;8.796;2024-03-25T09:04:04;12.00;79.20
3069;DHT22;1545;51.728;8.796;2024-03-25T09:06:29;11.30;80.10
3069;DHT22;1545;51.728;8.796;2024-03-25T09:08:55;10.50;81.40
3069;DHT22;1545;51.728;8.796;2024-03-25T09:11:39;10.00;82.70
3069;DHT22;1545;51.728;8.796;2024-03-25T09:14:04;10.50;83.90
3069;DHT22;1545;51.728;8.796;2024-03-25T09:16:31;11.30;81.80
3069;DHT22;1545;51.728;8.796;2024-03-25T09:18:57;11.00;81.10
3069;DHT22;1545;51.728;8.796;2024-03-25T09:21:23;10.70;81.90
3069;DHT22;1545;51.728;8.796;2024-03-25T09:23:50;10.60;82.20
3069;DHT22;1545;51.728;8.796;2024-03-25T09:26:15;10.60;82.30
3069;DHT22;1545;51.728;8.796;2024-03-25T09:28:41;10.50;83.10
3069;DHT22;1545;51.728;8.796;2024-03-25T09:31:06;10.60;83.10
3069;DHT22;1545;51.728;8.796;2024-03-25T09:33:32;11.20;82.00
3069;DHT22;1545;51.728;8.796;2024-03-25T09:35:57;12.00;79.90
3069;DHT22;1545;51.728;8.796;2024-03-25T09:38:23;12.00;79.00
3069;DHT22;1545;51.728;8.796;2024-03-25T09:40:53;11.40;79.40
3069;DHT22;1545;51.728;8.796;2024-03-25T09:43:33;10.60;81.10
3069;DHT22;1545;51.728;8.796;2024-03-25T09:46:02;10.50;81.80
3069;DHT22;1545;51.728;8.796;2024-03-25T09:48:29;10.40;82.00
3069;DHT22;1545;51.728;8.796;2024-03-25T09:50:55;10.40;81.50
3069;DHT22;1545;51.728;8.796;2024-03-25T09:53:21;10.40;81.70
3069;DHT22;1545;51.728;8.796;2024-03-25T09:55:47;10.60;81.50
3069;DHT22;1545;51.728;8.796;2024-03-25T09:58:14;10.90;81.30
3069;DHT22;1545;51.728;8.796;2024-03-25T10:00:40;11.30;80.50
3069;DHT22;1545;51.728;8.796;2024-03-25T10:03:06;11.70;79.50
3069;DHT22;1545;51.728;8.796;2024-03-25T10:05:32;11.90;77.40
3069;DHT22;1545;51.728;8.796;2024-03-25T10:07:58;11.70;75.80
3069;DHT22;1545;51.728;8.796;2024-03-25T10:10:23;11.60;76.80
3069;DHT22;1545;51.728;8.796;2024-03-25T10:12:49;11.20;78.00
3069;DHT22;1545;51.728;8.796;2024-03-25T10:15:17;10.80;79.20
3069;DHT22;1545;51.728;8.796;2024-03-25T10:17:43;10.60;78.90
3069;DHT22;1545;51.728;8.796;2024-03-25T10:20:18;10.30;79.90
3069;DHT22;1545;51.728;8.796;2024-03-25T10:22:45;10.00;79.80
3069;DHT22;1545;51.728;8.796;2024-03-25T10:25:26;9.80;80.70
3069;DHT22;1545;51.728;8.796;2024-03-25T10:27:59;9.50;82.10
3069;DHT22;1545;51.728;8.796;2024-03-25T10:30:26;9.50;82.80
3069;DHT22;1545;51.728;8.796;2024-03-25T10:33:05;9.30;83.70
3069;DHT22;1545;51.728;8.796;2024-03-25T10:35:33;8.90;84.00
3069;DHT22;1545;51.728;8.796;2024-03-25T10:38:01;8.80;84.50
3069;DHT22;1545;51.728;8.796;2024-03-25T10:40:29;8.70;82.40
3069;DHT22;1545;51.728;8.796;2024-03-25T10:43:02;8.70;82.20
3069;DHT22;1545;51.728;8.796;2024-03-25T10:45:31;8.70;82.30
3069;DHT22;1545;51.728;8.796;2024-03-25T10:47:58;8.90;82.20
3069;DHT22;1545;51.728;8.796;2024-03-25T10:50:28;9.20;82.20
3069;DHT22;1545;51.728;8.796;2024-03-25T10:52:54;9.50;80.70
3069;DHT22;1545;51.728;8.796;2024-03-25T10:55:21;9.70;79.40
3069;DHT22;1545;51.728;8.796;2024-03-25T10:57:48;9.90;78.90
3069;DHT22;1545;51.728;8.796;2024-03-25T11:00:15;10.20;78.90
3069;DHT22;1545;51.728;8.796;2024-03-25T11:02:42;10.50;78.10
3069;DHT22;1545;51.728;8.796;2024-03-25T11:05:09;10.60;77.40
3069;DHT22;1545;51.728;8.796;2024-03-25T11:07:36;10.80;77.80
3069;DHT22;1545;51.728;8.796;2024-03-25T11:10:04;10.80;76.80
3069;DHT22;1545;51.728;8.796;2024-03-25T11:12:38;10.90;76.90
3069;DHT22;1545;51.728;8.796;2024-03-25T11:15:05;11.10;77.10
3069;DHT22;1545;51.728;8.796;2024-03-25T11:17:33;11.20;75.30
3069;DHT22;1545;51.728;8.796;2024-03-25T11:20:10;11.30;74.90
3069;DHT22;1545;51.728;8.796;2024-03-25T11:22:35;11.40;74.80
3069;DHT22;1545;51.728;8.796;2024-03-25T11:25:07;11.40;75.40
3069;DHT22;1545;51.728;8.796;2024-03-25T11:27:36;11.70;75.00
3069;DHT22;1545;51.728;8.796;2024-03-25T11:30:03;11.90;75.10
3069;DHT22;1545;51.728;8.796;2024-03-25T11:32:52;12.10;75.10
3069;DHT22;1545;51.728;8.796;2024-03-25T11:35:19;12.40;75.30
3069;DHT22;1545;51.728;8.796;2024-03-25T11:37:44;12.60;74.40
3069;DHT22;1545;51.728;8.796;2024-03-25T11:40:11;12.40;73.00
3069;DHT22;1545;51.728;8.796;2024-03-25T11:42:41;12.40;74.20
3069;DHT22;1545;51.728;8.796;2024-03-25T11:45:14;12.10;73.20
3069;DHT22;1545;51.728;8.796;2024-03-25T11:47:44;12.10;73.20
3069;DHT22;1545;51.728;8.796;2024-03-25T11:50:12;12.30;72.90
3069;DHT22;1545;51.728;8.796;2024-03-25T11:52:38;12.30;73.10
3069;DHT22;1545;51.728;8.796;2024-03-25T11:55:04;12.40;72.30
3069;DHT22;1545;51.728;8.796;2024-03-25T11:57:30;12.60;71.00
3069;DHT22;1545;51.728;8.796;2024-03-25T11:59:57;12.80;70.70
3069;DHT22;1545;51.728;8.796;2024-03-25T12:02:22;12.90;71.10
3069;DHT22;1545;51.728;8.796;2024-03-25T12:04:48;13.00;67.90
3069;DHT22;1545;51.728;8.796;2024-03-25T12:07:14;13.10;68.50
3069;DHT22;1545;51.728;8.796;2024-03-25T12:09:40;13.20;69.70
3069;DHT22;1545;51.728;8.796;2024-03-25T12:12:25;13.30;68.50
3069;DHT22;1545;51.728;8.796;2024-03-25T12:14:51;13.30;66.10
3069;DHT22;1545;51.728;8.796;2024-03-25T12:17:18;13.20;65.80
3069;DHT22;1545;51.728;8.796;2024-03-25T12:19:43;13.20;66.60
3069;DHT22;1545;51.728;8.796;2024-03-25T12:22:09;13.30;66.00
3069;DHT22;1545;51.728;8.796;2024-03-25T12:24:34;13.30;65.10
3069;DHT22;1545;51.728;8.796;2024-03-25T12:27:01;13.30;66.20
3069;DHT22;1545;51.728;8.796;2024-03-25T12:29:28;13.30;66.80
3069;DHT22;1545;51.728;8.796;2024-03-25T12:31:57;13.30;66.90
3069;DHT22;1545;51.728;8.796;2024-03-25T12:34:25;13.40;67.50
3069;DHT22;1545;51.728;8.796;2024-03-25T12:36:51;13.60;67.00
3069;DHT22;1545;51.728;8.796;2024-03-25T12:39:17;13.80;65.90
3069;DHT22;1545;51.728;8.796;2024-03-25T12:41:44;13.90;64.90
3069;DHT22;1545;51.728;8.796;2024-03-25T12:44:12;13.80;64.70
3069;DHT22;1545;51.728;8.796;2024-03-25T12:46:38;13.60;65.10
3069;DHT22;1545;51.728;8.796;2024-03-25T12:49:07;13.40;63.90
3069;DHT22;1545;51.728;8.796;2024-03-25T12:51:33;13.30;64.60
3069;DHT22;1545;51.728;8.796;2024-03-25T12:53:58;13.30;64.60
3069;DHT22;1545;51.728;8.796;2024-03-25T12:56:24;13.30;65.00
3069;DHT22;1545;51.728;8.796;2024-03-25T12:58:50;13.20;64.80
3069;DHT22;1545;51.728;8.796;2024-03-25T13:01:15;13.20;65.30
3069;DHT22;1545;51.728;8.796;2024-03-25T13:03:41;13.20;66.20
3069;DHT22;1545;51.728;8.796;2024-03-25T13:06:07;13.20;67.10
3069;DHT22;1545;51.728;8.796;2024-03-25T13:08:32;13.30;67.30
3069;DHT22;1545;51.728;8.796;2024-03-25T13:10:58;13.40;67.10
3069;DHT22;1545;51.728;8.796;2024-03-25T13:13:24;13.50;66.40
3069;DHT22;1545;51.728;8.796;2024-03-25T13:15:49;13.70;65.00
3069;DHT22;1545;51.728;8.796;2024-03-25T13:18:14;13.80;64.10
3069;DHT22;1545;51.728;8.796;2024-03-25T13:20:40;13.70;64.10
3069;DHT22;1545;51.728;8.796;2024-03-25T13:23:05;13.80;63.30
3069;DHT22;1545;51.728;8.796;2024-03-25T13:25:31;13.90;63.00
3069;DHT22;1545;51.728;8.796;2024-03-25T13:27:56;14.20;62.80
3069;DHT22;1545;51.728;8.796;2024-03-25T13:30:22;14.30;61.40
3069;DHT22;1545;51.728;8.796;2024-03-25T13:32:52;14.40;61.90
3069;DHT22;1545;51.728;8.796;2024-03-25T13:35:17;14.40;60.50
3069;DHT22;1545;51.728;8.796;2024-03-25T13:37:44;14.60;60.20
3069;DHT22;1545;51.728;8.796;2024-03-25T13:40:10;14.30;60.70
3069;DHT22;1545;51.728;8.796;2024-03-25T13:42:37;14.10;60.50
3069;DHT22;1545;51.728;8.796;2024-03-25T13:45:04;13.50;59.90
3069;DHT22;1545;51.728;8.796;2024-03-25T13:47:29;13.00;60.30
3069;DHT22;1545;51.728;8.796;2024-03-25T13:50:05;13.00;61.00
3069;DHT22;1545;51.728;8.796;2024-03-25T13:52:33;13.10;61.20
3069;DHT22;1545;51.728;8.796;2024-03-25T13:54:59;12.90;61.80
3069;DHT22;1545;51.728;8.796;2024-03-25T13:57:24;12.50;61.10
3069;DHT22;1545;51.728;8.796;2024-03-25T13:59:50;12.50;63.10
3069;DHT22;1545;51.728;8.796;2024-03-25T14:02:16;12.70;62.80
3069;DHT22;1545;51.728;8.796;2024-03-25T14:04:41;12.90;61.70
3069;DHT22;1545;51.728;8.796;2024-03-25T14:07:07;13.10;61.90
3069;DHT22;1545;51.728;8.796;2024-03-25T14:09:32;13.30;63.40
3069;DHT22;1545;51.728;8.796;2024-03-25T14:11:58;13.40;60.20
3069;DHT22;1545;51.728;8.796;2024-03-25T14:14:23;13.40;61.50
3069;DHT22;1545;51.728;8.796;2024-03-25T14:16:49;13.20;60.40
3069;DHT22;1545;51.728;8.796;2024-03-25T14:19:14;13.00;60.00
3069;DHT22;1545;51.728;8.796;2024-03-25T14:21:40;12.80;61.80
3069;DHT22;1545;51.728;8.796;2024-03-25T14:24:06;12.40;60.40
3069;DHT22;1545;51.728;8.796;2024-03-25T14:26:32;12.10;62.10
3069;DHT22;1545;51.728;8.796;2024-03-25T14:28:57;12.10;62.50
3069;DHT22;1545;51.728;8.796;2024-03-25T14:31:25;12.10;62.60
3069;DHT22;1545;51.728;8.796;2024-03-25T14:33:50;12.20;62.20
3069;DHT22;1545;51.728;8.796;2024-03-25T14:36:16;12.20;62.00
3069;DHT22;1545;51.728;8.796;2024-03-25T14:38:41;12.20;61.60
3069;DHT22;1545;51.728;8.796;2024-03-25T14:41:08;12.20;62.40
3069;DHT22;1545;51.728;8.796;2024-03-25T14:43:33;12.40;63.20
3069;DHT22;1545;51.728;8.796;2024-03-25T14:45:59;12.60;62.50
3069;DHT22;1545;51.728;8.796;2024-03-25T14:48:24;12.60;60.60
3069;DHT22;1545;51.728;8.796;2024-03-25T14:50:50;12.50;60.30
3069;DHT22;1545;51.728;8.796;2024-03-25T14:53:15;12.60;61.40
3069;DHT22;1545;51.728;8.796;2024-03-25T14:55:44;12.60;61.40
3069;DHT22;1545;51.728;8.796;2024-03-25T14:58:09;12.60;60.40
3069;DHT22;1545;51.728;8.796;2024-03-25T15:00:36;12.40;60.30
3069;DHT22;1545;51.728;8.796;2024-03-25T15:03:02;12.20;60.30
3069;DHT22;1545;51.728;8.796;2024-03-25T15:05:28;11.60;60.10
3069;DHT22;1545;51.728;8.796;2024-03-25T15:07:53;11.70;62.50
3069;DHT22;1545;51.728;8.796;2024-03-25T15:10:18;11.90;61.00
3069;DHT22;1545;51.728;8.796;2024-03-25T15:12:46;12.00;61.40
3069;DHT22;1545;51.728;8.796;2024-03-25T15:15:11;11.80;61.20
3069;DHT22;1545;51.728;8.796;2024-03-25T15:17:37;11.60;62.80
3069;DHT22;1545;51.728;8.796;2024-03-25T15:20:06;11.60;64.30
3069;DHT22;1545;51.728;8.796;2024-03-25T15:22:32;11.20;66.90
3069;DHT22;1545;51.728;8.796;2024-03-25T15:24:58;11.10;67.80
3069;DHT22;1545;51.728;8.796;2024-03-25T15:27:24;11.20;65.10
3069;DHT22;1545;51.728;8.796;2024-03-25T15:29:49;11.20;64.50
3069;DHT22;1545;51.728;8.796;2024-03-25T15:32:15;11.30;70.80
3069;DHT22;1545;51.728;8.796;2024-03-25T15:34:41;11.20;69.10
3069;DHT22;1545;51.728;8.796;2024-03-25T15:37:07;11.20;71.20
3069;DHT22;1545;51.728;8.796;2024-03-25T15:39:32;11.00;68.80
3069;DHT22;1545;51.728;8.796;2024-03-25T15:41:57;11.00;68.90
3069;DHT22;1545;51.728;8.796;2024-03-25T15:44:23;10.80;68.80
3069;DHT22;1545;51.728;8.796;2024-03-25T15:46:48;10.50;67.50
3069;DHT22;1545;51.728;8.796;2024-03-25T15:49:14;10.60;69.10
3069;DHT22;1545;51.728;8.796;2024-03-25T15:51:40;10.40;68.30
3069;DHT22;1545;51.728;8.796;2024-03-25T15:54:05;10.30;70.40
3069;DHT22;1545;51.728;8.796;2024-03-25T15:56:30;10.30;70.50
3069;DHT22;1545;51.728;8.796;2024-03-25T15:58:56;10.20;72.30
3069;DHT22;1545;51.728;8.796;2024-03-25T16:01:23;10.20;70.10
3069;DHT22;1545;51.728;8.796;2024-03-25T16:03:48;10.30;70.90
3069;DHT22;1545;51.728;8.796;2024-03-25T16:06:14;10.40;69.70